sensor_id;sensor_type;location;lat;lon;timestamp;pressure;altitude;pressure_sealevel;temperature;humidity
60817;BME280;51921;51.518;-3.188;2023-04-29T00:01:12;101474.13;;;10.03;100.00
60817;BME280;51921;51.518;-3.188;2023-04-29T00:03:38;101478.07;;;10.21;100.00
60817;BME280;51921;51.518;-3.188;2023-04-29T00:06:03;101481.45;;;10.14;100.00
60817;BME280;51921;51.518;-3.188;2023-04-29T00:08:29;101481.08;;;10.75;100.00
60817;BME280;51921;51.518;-3.188;2023-04-29T00:10:54;101478.37;;;10.31;100.00
60817;BME280;51921;51.518;-3.188;2023-04-29T00:13:20;101482.98;;;10.69;100.00
60817;BME280;51921;51.518;-3.188;2023-04-29T00:15:45;101485.20;;;9.25;100.00
60817;BME280;51921;51.518;-3.188;2023-04-29T00:18:10;101486.63;;;10.14;100.00
60817;BME280;51921;51.518;-3.188;2023-04-29T00:20:36;101486.55;;;10.59;100.00
60817;BME280;51921;51.518;-3.188;2023-04-29T00:23:01;101489.47;;;10.52;100.00
60817;BME280;51921;51.518;-3.188;2023-04-29T00:25:26;101493.85;;;9.26;100.00
60817;BME280;51921;51.518;-3.188;2023-04-29T00:27:52;101490.51;;;9.38;100.00
60817;BME280;51921;51.518;-3.188;2023-04-29T00:30:18;101491.09;;;9.75;100.00
60817;BME280;51921;51.518;-3.188;2023-04-29T00:32:43;101494.85;;;9.82;100.00
60817;BME280;51921;51.518;-3.188;2023-04-29T00:35:09;101495.00;;;9.53;100.00
60817;BME280;51921;51.518;-3.188;2023-04-29T00:37:34;101490.48;;;10.19;100.00
60817;BME280;51921;51.518;-3.188;2023-04-29T00:40:00;101491.17;;;10.92;100.00
60817;BME280;51921;51.518;-3.188;2023-04-29T00:42:26;101493.25;;;10.03;100.00
60817;BME280;51921;51.518;-3.188;2023-04-29T00:44:51;101488.82;;;10.34;100.00
60817;BME280;51921;51.518;-3.188;2023-04-29T00:47:17;101489.47;;;10.55;100.00
60817;BME280;51921;51.518;-3.188;2023-04-29T00:49:42;101488.54;;;9.14;100.00
60817;BME280;51921;51.518;-3.188;2023-04-29T00:52:10;101484.48;;;10.52;100.00
60817;BME280;51921;51.518;-3.188;2023-04-29T00:54:33;101480.20;;;9.47;100.00
60817;BME280;51921;51.518;-3.188;2023-04-29T00:56:59;101481.23;;;10.84;100.00
60817;BME280;51921;51.518;-3.188;2023-04-29T00:59:25;101482.36;;;10.88;100.00
60817;BME280;51921;51.518;-3.188;2023-04-29T01:01:49;101481.27;;;9.20;100.00
60817;BME280;51921;51.518;-3.188;2023-04-29T01:04:14;101482.35;;;9.53;100.00
60817;BME280;51921;51.518;-3.188;2023-04-29T01:06:48;101477.04;;;8.46;100.00
60817;BME280;51921;51.518;-3.188;2023-04-29T01:09:16;101476.25;;;8.42;100.00
60817;BME280;51921;51.518;-3.188;2023-04-29T01:11:34;101476.81;;;10.79;100.00
60817;BME280;51921;51.518;-3.188;2023-04-29T01:13:58;101482.02;;;9.30;100.00
60817;BME280;51921;51.518;-3.188;2023-04-29T01:16:24;101478.32;;;8.80;100.00
60817;BME280;51921;51.518;-3.188;2023-04-29T01:18:53;101478.97;;;8.57;100.00
60817;BME280;51921;51.518;-3.188;2023-04-29T01:21:13;101479.05;;;8.55;100.00
60817;BME280;51921;51.518;-3.188;2023-04-29T01:23:38;101479.12;;;9.88;100.00
60817;BME280;51921;51.518;-3.188;2023-04-29T01:26:04;101477.48;;;8.69;100.00
60817;BME280;51921;51.518;-3.188;2023-04-29T01:28:41;101482.28;;;9.73;100.00
60817;BME280;51921;51.518;-3.188;2023-04-29T01:30:59;101482.85;;;9.95;100.00
60817;BME280;51921;51.518;-3.188;2023-04-29T01:33:26;101483.69;;;9.87;100.00
60817;BME280;51921;51.518;-3.188;2023-04-29T01:35:53;101480.24;;;8.78;100.00
60817;BME280;51921;51.518;-3.188;2023-04-29T01:38:22;101479.16;;;8.25;100.00
60817;BME280;51921;51.518;-3.188;2023-04-29T01:40:42;101475.76;;;11.24;96.13
60817;BME280;51921;51.518;-3.188;2023-04-29T01:43:04;101481.25;;;9.99;100.00
60817;BME280;51921;51.518;-3.188;2023-04-29T01:45:28;101481.78;;;9.04;100.00
60817;BME280;51921;51.518;-3.188;2023-04-29T01:47:53;101481.53;;;8.06;100.00
60817;BME280;51921;51.518;-3.188;2023-04-29T01:50:18;101479.10;;;10.37;100.00
60817;BME280;51921;51.518;-3.188;2023-04-29T01:52:44;101474.46;;;10.94;100.00
60817;BME280;51921;51.518;-3.188;2023-04-29T01:55:09;101483.21;;;9.46;100.00
60817;BME280;51921;51.518;-3.188;2023-04-29T01:57:35;101482.81;;;10.09;99.65
60817;BME280;51921;51.518;-3.188;2023-04-29T02:00:00;101484.91;;;9.77;100.00
60817;BME280;51921;51.518;-3.188;2023-04-29T02:02:25;101488.57;;;9.64;100.00
60817;BME280;51921;51.518;-3.188;2023-04-29T02:04:51;101489.77;;;9.49;100.00
60817;BME280;51921;51.518;-3.188;2023-04-29T02:07:16;101489.58;;;9.41;100.00
60817;BME280;51921;51.518;-3.188;2023-04-29T02:09:42;101491.63;;;9.76;100.00
60817;BME280;51921;51.518;-3.188;2023-04-29T02:12:07;101485.54;;;9.05;100.00
60817;BME280;51921;51.518;-3.188;2023-04-29T02:14:33;101486.51;;;8.58;100.00
60817;BME280;51921;51.518;-3.188;2023-04-29T02:16:58;101493.07;;;8.92;100.00
60817;BME280;51921;51.518;-3.188;2023-04-29T02:19:23;101497.22;;;9.42;100.00
60817;BME280;51921;51.518;-3.188;2023-04-29T02:21:49;101494.94;;;8.83;100.00
60817;BME280;51921;51.518;-3.188;2023-04-29T02:24:14;101495.04;;;9.09;100.00
60817;BME280;51921;51.518;-3.188;2023-04-29T02:26:40;101496.17;;;9.24;100.00
60817;BME280;51921;51.518;-3.188;2023-04-29T02:29:05;101492.43;;;8.07;100.00
60817;BME280;51921;51.518;-3.188;2023-04-29T02:31:30;101492.51;;;9.57;100.00
60817;BME280;51921;51.518;-3.188;2023-04-29T02:33:56;101493.43;;;9.58;100.00
60817;BME280;51921;51.518;-3.188;2023-04-29T02:36:22;101495.96;;;9.57;100.00
60817;BME280;51921;51.518;-3.188;2023-04-29T02:38:47;101491.67;;;8.50;100.00
60817;BME280;51921;51.518;-3.188;2023-04-29T02:41:15;101491.26;;;9.06;100.00
60817;BME280;51921;51.518;-3.188;2023-04-29T02:43:37;101494.86;;;7.56;100.00
60817;BME280;51921;51.518;-3.188;2023-04-29T02:46:02;101497.36;;;8.55;100.00
60817;BME280;51921;51.518;-3.188;2023-04-29T02:48:28;101501.42;;;8.84;100.00
60817;BME280;51921;51.518;-3.188;2023-04-29T02:50:53;101503.69;;;8.93;100.00
60817;BME280;51921;51.518;-3.188;2023-04-29T02:53:19;101506.99;;;9.23;100.00
60817;BME280;51921;51.518;-3.188;2023-04-29T02:55:44;101512.54;;;8.88;100.00
60817;BME280;51921;51.518;-3.188;2023-04-29T02:58:10;101508.25;;;8.53;100.00
60817;BME280;51921;51.518;-3.188;2023-04-29T03:00:35;101508.69;;;8.24;100.00
60817;BME280;51921;51.518;-3.188;2023-04-29T03:03:00;101505.04;;;8.56;100.00
60817;BME280;51921;51.518;-3.188;2023-04-29T03:05:26;101506.59;;;9.52;100.00
60817;BME280;51921;51.518;-3.188;2023-04-29T03:07:51;101505.98;;;8.70;100.00
60817;BME280;51921;51.518;-3.188;2023-04-29T03:10:16;101506.53;;;7.77;100.00
60817;BME280;51921;51.518;-3.188;2023-04-29T03:12:42;101507.86;;;9.42;100.00
60817;BME280;51921;51.518;-3.188;2023-04-29T03:15:08;101512.46;;;10.11;95.92
60817;BME280;51921;51.518;-3.188;2023-04-29T03:17:33;101507.55;;;9.65;100.00
60817;BME280;51921;51.518;-3.188;2023-04-29T03:19:58;101512.44;;;9.73;100.00
60817;BME280;51921;51.518;-3.188;2023-04-29T03:22:23;101510.38;;;8.71;100.00
60817;BME280;51921;51.518;-3.188;2023-04-29T03:24:49;101509.78;;;8.49;100.00
60817;BME280;51921;51.518;-3.188;2023-04-29T03:27:14;101512.52;;;7.55;100.00
60817;BME280;51921;51.518;-3.188;2023-04-29T03:29:45;101514.44;;;7.22;100.00
60817;BME280;51921;51.518;-3.188;2023-04-29T03:32:05;101509.93;;;7.87;100.00
60817;BME280;51921;51.518;-3.188;2023-04-29T03:34:31;101513.31;;;9.24;100.00
60817;BME280;51921;51.518;-3.188;2023-04-29T03:36:57;101511.18;;;10.33;92.24
60817;BME280;51921;51.518;-3.188;2023-04-29T03:39:22;101511.80;;;7.96;100.00
60817;BME280;51921;51.518;-3.188;2023-04-29T03:41:47;101509.15;;;8.48;100.00
60817;BME280;51921;51.518;-3.188;2023-04-29T03:44:12;101511.29;;;8.02;100.00
60817;BME280;51921;51.518;-3.188;2023-04-29T03:46:37;101513.73;;;7.37;100.00
60817;BME280;51921;51.518;-3.188;2023-04-29T03:49:03;101518.04;;;7.89;100.00
60817;BME280;51921;51.518;-3.188;2023-04-29T03:51:29;101521.02;;;7.86;100.00
60817;BME280;51921;51.518;-3.188;2023-04-29T03:53:54;101524.95;;;7.95;100.00
60817;BME280;51921;51.518;-3.188;2023-04-29T03:56:19;101524.39;;;8.54;100.00
60817;BME280;51921;51.518;-3.188;2023-04-29T03:58:45;101524.02;;;7.63;100.00
60817;BME280;51921;51.518;-3.188;2023-04-29T04:01:10;101525.92;;;7.08;100.00
60817;BME280;51921;51.518;-3.188;2023-04-29T04:03:36;101532.20;;;7.19;100.00
60817;BME280;51921;51.518;-3.188;2023-04-29T04:06:01;101537.41;;;7.17;100.00
60817;BME280;51921;51.518;-3.188;2023-04-29T04:08:27;101535.29;;;8.64;100.00
60817;BME280;51921;51.518;-3.188;2023-04-29T04:10:52;101534.77;;;6.94;100.00
60817;BME280;51921;51.518;-3.188;2023-04-29T04:13:17;101537.63;;;7.27;100.00
60817;BME280;51921;51.518;-3.188;2023-04-29T04:15:48;101538.48;;;7.28;100.00
60817;BME280;51921;51.518;-3.188;2023-04-29T04:18:08;101537.82;;;6.63;100.00
60817;BME280;51921;51.518;-3.188;2023-04-29T04:20:36;101537.96;;;7.61;100.00
60817;BME280;51921;51.518;-3.188;2023-04-29T04:23:00;101543.78;;;7.78;100.00
60817;BME280;51921;51.518;-3.188;2023-04-29T04:25:26;101540.64;;;7.34;100.00
60817;BME280;51921;51.518;-3.188;2023-04-29T04:27:51;101539.85;;;7.78;100.00
60817;BME280;51921;51.518;-3.188;2023-04-29T04:30:16;101544.94;;;7.76;100.00
60817;BME280;51921;51.518;-3.188;2023-04-29T04:32:41;101547.55;;;7.84;100.00
60817;BME280;51921;51.518;-3.188;2023-04-29T04:35:07;101548.44;;;8.30;100.00
60817;BME280;51921;51.518;-3.188;2023-04-29T04:37:32;101554.23;;;7.74;100.00
60817;BME280;51921;51.518;-3.188;2023-04-29T04:39:57;101554.34;;;7.90;100.00
60817;BME280;51921;51.518;-3.188;2023-04-29T04:42:23;101556.20;;;8.16;100.00
60817;BME280;51921;51.518;-3.188;2023-04-29T04:44:48;101558.64;;;7.63;100.00
60817;BME280;51921;51.518;-3.188;2023-04-29T04:47:13;101559.62;;;8.45;100.00
60817;BME280;51921;51.518;-3.188;2023-04-29T04:49:39;101567.22;;;7.76;100.00
60817;BME280;51921;51.518;-3.188;2023-04-29T04:52:04;101567.47;;;7.85;100.00
60817;BME280;51921;51.518;-3.188;2023-04-29T04:54:30;101571.67;;;7.72;100.00
60817;BME280;51921;51.518;-3.188;2023-04-29T04:56:56;101575.11;;;7.96;100.00
60817;BME280;51921;51.518;-3.188;2023-04-29T04:59:21;101580.27;;;8.08;100.00
60817;BME280;51921;51.518;-3.188;2023-04-29T05:01:47;101583.92;;;6.97;100.00
60817;BME280;51921;51.518;-3.188;2023-04-29T05:04:12;101589.06;;;7.42;100.00
60817;BME280;51921;51.518;-3.188;2023-04-29T05:06:37;101592.73;;;7.55;100.00
60817;BME280;51921;51.518;-3.188;2023-04-29T05:09:03;101593.68;;;7.34;100.00
60817;BME280;51921;51.518;-3.188;2023-04-29T05:11:28;101597.50;;;7.50;100.00
60817;BME280;51921;51.518;-3.188;2023-04-29T05:13:54;101595.66;;;7.97;100.00
60817;BME280;51921;51.518;-3.188;2023-04-29T05:16:20;101598.84;;;8.12;100.00
60817;BME280;51921;51.518;-3.188;2023-04-29T05:18:45;101601.75;;;7.75;100.00
60817;BME280;51921;51.518;-3.188;2023-04-29T05:21:12;101603.78;;;7.93;100.00
60817;BME280;51921;51.518;-3.188;2023-04-29T05:23:37;101603.73;;;8.80;100.00
60817;BME280;51921;51.518;-3.188;2023-04-29T05:26:02;101609.32;;;6.57;100.00
60817;BME280;51921;51.518;-3.188;2023-04-29T05:28:27;101602.94;;;8.94;100.00
60817;BME280;51921;51.518;-3.188;2023-04-29T05:30:53;101601.42;;;7.97;100.00
60817;BME280;51921;51.518;-3.188;2023-04-29T05:33:18;101600.68;;;7.20;100.00
60817;BME280;51921;51.518;-3.188;2023-04-29T05:35:44;101597.97;;;7.82;100.00
60817;BME280;51921;51.518;-3.188;2023-04-29T05:38:10;101593.76;;;8.42;100.00
60817;BME280;51921;51.518;-3.188;2023-04-29T05:40:35;101600.17;;;8.50;100.00
60817;BME280;51921;51.518;-3.188;2023-04-29T05:43:01;101601.42;;;8.08;100.00
60817;BME280;51921;51.518;-3.188;2023-04-29T05:45:26;101603.13;;;7.53;100.00
60817;BME280;51921;51.518;-3.188;2023-04-29T05:47:52;101607.24;;;6.99;100.00
60817;BME280;51921;51.518;-3.188;2023-04-29T05:50:18;101609.50;;;7.30;100.00
60817;BME280;51921;51.518;-3.188;2023-04-29T05:52:43;101605.37;;;6.70;100.00
60817;BME280;51921;51.518;-3.188;2023-04-29T05:55:09;101609.01;;;6.52;100.00
60817;BME280;51921;51.518;-3.188;2023-04-29T05:57:34;101607.04;;;7.75;100.00
60817;BME280;51921;51.518;-3.188;2023-04-29T06:00:00;101604.77;;;8.81;100.00
60817;BME280;51921;51.518;-3.188;2023-04-29T06:02:26;101601.59;;;8.38;100.00
60817;BME280;51921;51.518;-3.188;2023-04-29T06:04:51;101598.49;;;8.51;100.00
60817;BME280;51921;51.518;-3.188;2023-04-29T06:07:16;101600.64;;;9.68;100.00
60817;BME280;51921;51.518;-3.188;2023-04-29T06:09:41;101606.79;;;8.43;100.00
60817;BME280;51921;51.518;-3.188;2023-04-29T06:12:07;101613.93;;;8.41;100.00
60817;BME280;51921;51.518;-3.188;2023-04-29T06:14:32;101617.10;;;8.11;100.00
60817;BME280;51921;51.518;-3.188;2023-04-29T06:16:58;101622.29;;;8.21;100.00
60817;BME280;51921;51.518;-3.188;2023-04-29T06:19:23;101625.08;;;9.04;100.00
60817;BME280;51921;51.518;-3.188;2023-04-29T06:21:49;101626.85;;;8.38;100.00
60817;BME280;51921;51.518;-3.188;2023-04-29T06:24:14;101627.11;;;9.04;100.00
60817;BME280;51921;51.518;-3.188;2023-04-29T06:26:40;101628.61;;;9.16;100.00
60817;BME280;51921;51.518;-3.188;2023-04-29T06:29:05;101629.20;;;8.92;100.00
60817;BME280;51921;51.518;-3.188;2023-04-29T06:31:31;101631.31;;;8.71;100.00
60817;BME280;51921;51.518;-3.188;2023-04-29T06:33:56;101634.55;;;9.93;98.69
60817;BME280;51921;51.518;-3.188;2023-04-29T06:36:22;101637.82;;;8.79;100.00
60817;BME280;51921;51.518;-3.188;2023-04-29T06:38:47;101641.98;;;8.30;100.00
60817;BME280;51921;51.518;-3.188;2023-04-29T06:41:13;101642.34;;;9.60;99.17
60817;BME280;51921;51.518;-3.188;2023-04-29T06:43:38;101642.54;;;9.27;100.00
60817;BME280;51921;51.518;-3.188;2023-04-29T06:46:04;101647.92;;;8.81;100.00
60817;BME280;51921;51.518;-3.188;2023-04-29T06:48:29;101648.19;;;9.81;100.00
60817;BME280;51921;51.518;-3.188;2023-04-29T06:50:56;101651.81;;;11.60;91.80
60817;BME280;51921;51.518;-3.188;2023-04-29T06:53:21;101651.17;;;12.01;89.27
60817;BME280;51921;51.518;-3.188;2023-04-29T06:55:45;101652.78;;;10.40;94.97
60817;BME280;51921;51.518;-3.188;2023-04-29T06:58:10;101658.08;;;8.18;100.00
60817;BME280;51921;51.518;-3.188;2023-04-29T07:00:36;101656.20;;;9.04;100.00
60817;BME280;51921;51.518;-3.188;2023-04-29T07:03:01;101660.24;;;10.08;98.29
60817;BME280;51921;51.518;-3.188;2023-04-29T07:05:26;101660.44;;;11.37;93.56
60817;BME280;51921;51.518;-3.188;2023-04-29T07:07:52;101659.78;;;10.05;95.15
60817;BME280;51921;51.518;-3.188;2023-04-29T07:10:17;101666.07;;;10.88;93.63
60817;BME280;51921;51.518;-3.188;2023-04-29T07:12:43;101666.69;;;11.76;90.44
60817;BME280;51921;51.518;-3.188;2023-04-29T07:15:09;101664.35;;;12.41;83.78
60817;BME280;51921;51.518;-3.188;2023-04-29T07:17:34;101666.90;;;11.05;90.91
60817;BME280;51921;51.518;-3.188;2023-04-29T07:20:00;101666.35;;;11.17;89.07
60817;BME280;51921;51.518;-3.188;2023-04-29T07:22:25;101665.46;;;11.88;87.71
60817;BME280;51921;51.518;-3.188;2023-04-29T07:24:52;101669.87;;;10.94;91.71
60817;BME280;51921;51.518;-3.188;2023-04-29T07:27:15;101674.50;;;10.64;96.75
60817;BME280;51921;51.518;-3.188;2023-04-29T07:29:40;101669.48;;;13.65;86.07
60817;BME280;51921;51.518;-3.188;2023-04-29T07:32:05;101669.79;;;16.35;73.61
60817;BME280;51921;51.518;-3.188;2023-04-29T07:34:31;101667.44;;;12.65;74.58
60817;BME280;51921;51.518;-3.188;2023-04-29T07:36:56;101669.76;;;12.49;94.13
60817;BME280;51921;51.518;-3.188;2023-04-29T07:39:22;101670.36;;;15.10;71.10
60817;BME280;51921;51.518;-3.188;2023-04-29T07:41:48;101675.40;;;13.38;85.41
60817;BME280;51921;51.518;-3.188;2023-04-29T07:44:13;101675.28;;;13.75;75.81
60817;BME280;51921;51.518;-3.188;2023-04-29T07:46:38;101682.00;;;10.24;94.12
60817;BME280;51921;51.518;-3.188;2023-04-29T07:49:03;101676.29;;;12.18;86.22
60817;BME280;51921;51.518;-3.188;2023-04-29T07:51:28;101681.84;;;9.87;96.61
60817;BME280;51921;51.518;-3.188;2023-04-29T07:53:53;101684.58;;;10.93;97.15
60817;BME280;51921;51.518;-3.188;2023-04-29T07:56:19;101691.07;;;8.76;100.00
60817;BME280;51921;51.518;-3.188;2023-04-29T07:58:44;101690.54;;;7.66;100.00
60817;BME280;51921;51.518;-3.188;2023-04-29T08:01:10;101689.64;;;8.78;100.00
60817;BME280;51921;51.518;-3.188;2023-04-29T08:03:35;101690.57;;;11.65;100.00
60817;BME280;51921;51.518;-3.188;2023-04-29T08:06:01;101690.16;;;12.14;94.78
60817;BME280;51921;51.518;-3.188;2023-04-29T08:08:26;101692.76;;;12.02;98.72
60817;BME280;51921;51.518;-3.188;2023-04-29T08:10:51;101687.24;;;15.19;83.74
60817;BME280;51921;51.518;-3.188;2023-04-29T08:13:17;101688.37;;;15.49;74.53
60817;BME280;51921;51.518;-3.188;2023-04-29T08:15:42;101690.11;;;17.12;65.83
60817;BME280;51921;51.518;-3.188;2023-04-29T08:18:08;101691.89;;;16.48;65.48
60817;BME280;51921;51.518;-3.188;2023-04-29T08:20:33;101696.33;;;17.17;63.37
60817;BME280;51921;51.518;-3.188;2023-04-29T08:22:58;101703.21;;;16.42;68.31
60817;BME280;51921;51.518;-3.188;2023-04-29T08:25:23;101700.42;;;16.64;65.77
60817;BME280;51921;51.518;-3.188;2023-04-29T08:27:49;101706.55;;;10.15;96.98
60817;BME280;51921;51.518;-3.188;2023-04-29T08:30:14;101710.58;;;9.40;100.00
60817;BME280;51921;51.518;-3.188;2023-04-29T08:32:39;101708.65;;;12.27;100.00
60817;BME280;51921;51.518;-3.188;2023-04-29T08:35:06;101716.57;;;10.71;100.00
60817;BME280;51921;51.518;-3.188;2023-04-29T08:37:30;101718.94;;;8.72;100.00
60817;BME280;51921;51.518;-3.188;2023-04-29T08:39:55;101717.19;;;8.51;100.00
60817;BME280;51921;51.518;-3.188;2023-04-29T08:42:34;101726.36;;;6.40;100.00
60817;BME280;51921;51.518;-3.188;2023-04-29T08:44:46;101721.64;;;10.13;100.00
60817;BME280;51921;51.518;-3.188;2023-04-29T08:47:11;101718.08;;;11.93;100.00
60817;BME280;51921;51.518;-3.188;2023-04-29T08:49:37;101722.38;;;7.18;100.00
60817;BME280;51921;51.518;-3.188;2023-04-29T08:52:02;101720.55;;;8.07;100.00
60817;BME280;51921;51.518;-3.188;2023-04-29T08:54:27;101720.92;;;10.08;100.00
60817;BME280;51921;51.518;-3.188;2023-04-29T08:56:54;101731.84;;;7.86;100.00
60817;BME280;51921;51.518;-3.188;2023-04-29T08:59:18;101732.63;;;8.59;100.00
60817;BME280;51921;51.518;-3.188;2023-04-29T09:01:46;101731.52;;;9.55;100.00
60817;BME280;51921;51.518;-3.188;2023-04-29T09:04:14;101733.05;;;12.13;100.00
60817;BME280;51921;51.518;-3.188;2023-04-29T09:06:35;101735.74;;;8.30;100.00
60817;BME280;51921;51.518;-3.188;2023-04-29T09:09:01;101740.50;;;6.80;100.00
60817;BME280;51921;51.518;-3.188;2023-04-29T09:11:26;101737.02;;;6.47;100.00
60817;BME280;51921;51.518;-3.188;2023-04-29T09:13:51;101737.90;;;6.06;100.00
60817;BME280;51921;51.518;-3.188;2023-04-29T09:16:17;101738.92;;;6.61;100.00
60817;BME280;51921;51.518;-3.188;2023-04-29T09:18:45;101743.98;;;7.75;100.00
60817;BME280;51921;51.518;-3.188;2023-04-29T09:21:15;101743.56;;;6.08;100.00
60817;BME280;51921;51.518;-3.188;2023-04-29T09:23:36;101749.70;;;6.01;100.00
60817;BME280;51921;51.518;-3.188;2023-04-29T09:25:59;101754.78;;;6.03;100.00
60817;BME280;51921;51.518;-3.188;2023-04-29T09:28:25;101758.20;;;6.09;100.00
60817;BME280;51921;51.518;-3.188;2023-04-29T09:30:50;101755.30;;;7.67;100.00
60817;BME280;51921;51.518;-3.188;2023-04-29T09:33:15;101754.58;;;6.05;100.00
60817;BME280;51921;51.518;-3.188;2023-04-29T09:35:41;101754.96;;;6.35;100.00
60817;BME280;51921;51.518;-3.188;2023-04-29T09:38:11;101764.53;;;6.40;100.00
60817;BME280;51921;51.518;-3.188;2023-04-29T09:40:32;101771.99;;;5.93;100.00
60817;BME280;51921;51.518;-3.188;2023-04-29T09:42:56;101770.79;;;6.26;100.00
60817;BME280;51921;51.518;-3.188;2023-04-29T09:45:32;101767.22;;;6.44;100.00
60817;BME280;51921;51.518;-3.188;2023-04-29T09:50:13;101757.62;;;10.19;100.00
60817;BME280;51921;51.518;-3.188;2023-04-29T09:52:39;101757.07;;;9.99;100.00
60817;BME280;51921;51.518;-3.188;2023-04-29T09:55:05;101753.16;;;11.33;100.00
60817;BME280;51921;51.518;-3.188;2023-04-29T09:59:53;101755.43;;;10.55;100.00
60817;BME280;51921;51.518;-3.188;2023-04-29T10:02:19;101766.11;;;7.66;100.00
60817;BME280;51921;51.518;-3.188;2023-04-29T10:04:46;101768.10;;;6.16;100.00
60817;BME280;51921;51.518;-3.188;2023-04-29T10:07:13;101770.73;;;6.05;100.00
60817;BME280;51921;51.518;-3.188;2023-04-29T10:09:36;101771.40;;;7.29;100.00
60817;BME280;51921;51.518;-3.188;2023-04-29T10:12:01;101767.62;;;7.97;100.00
60817;BME280;51921;51.518;-3.188;2023-04-29T10:14:27;101764.65;;;8.43;100.00
60817;BME280;51921;51.518;-3.188;2023-04-29T10:16:59;101764.17;;;8.60;100.00
60817;BME280;51921;51.518;-3.188;2023-04-29T10:19:24;101767.21;;;9.34;100.00
60817;BME280;51921;51.518;-3.188;2023-04-29T10:21:43;101762.35;;;11.26;100.00
60817;BME280;51921;51.518;-3.188;2023-04-29T10:24:10;101758.78;;;10.61;100.00
60817;BME280;51921;51.518;-3.188;2023-04-29T10:26:34;101759.01;;;11.67;100.00
60817;BME280;51921;51.518;-3.188;2023-04-29T10:28:59;101758.95;;;10.11;100.00
60817;BME280;51921;51.518;-3.188;2023-04-29T10:31:25;101764.73;;;9.05;100.00
60817;BME280;51921;51.518;-3.188;2023-04-29T10:33:51;101761.49;;;11.31;100.00
60817;BME280;51921;51.518;-3.188;2023-04-29T10:36:16;101761.46;;;9.48;100.00
60817;BME280;51921;51.518;-3.188;2023-04-29T10:38:44;101761.29;;;10.90;100.00
60817;BME280;51921;51.518;-3.188;2023-04-29T10:41:09;101766.11;;;11.59;100.00
60817;BME280;51921;51.518;-3.188;2023-04-29T10:43:32;101764.08;;;10.93;100.00
60817;BME280;51921;51.518;-3.188;2023-04-29T10:48:22;101769.35;;;7.87;100.00
60817;BME280;51921;51.518;-3.188;2023-04-29T10:51:00;101772.01;;;7.41;100.00
60817;BME280;51921;51.518;-3.188;2023-04-29T10:53:16;101772.24;;;9.50;100.00
60817;BME280;51921;51.518;-3.188;2023-04-29T10:55:39;101770.55;;;10.64;100.00
60817;BME280;51921;51.518;-3.188;2023-04-29T10:58:05;101777.48;;;11.67;100.00
60817;BME280;51921;51.518;-3.188;2023-04-29T11:00:32;101777.29;;;10.28;100.00
60817;BME280;51921;51.518;-3.188;2023-04-29T11:02:57;101783.26;;;8.36;100.00
60817;BME280;51921;51.518;-3.188;2023-04-29T11:05:29;101785.17;;;6.79;100.00
60817;BME280;51921;51.518;-3.188;2023-04-29T11:07:46;101785.51;;;7.31;100.00
60817;BME280;51921;51.518;-3.188;2023-04-29T11:10:12;101786.91;;;8.85;100.00
60817;BME280;51921;51.518;-3.188;2023-04-29T11:12:37;101786.26;;;10.72;100.00
60817;BME280;51921;51.518;-3.188;2023-04-29T11:15:03;101785.42;;;11.10;100.00
60817;BME280;51921;51.518;-3.188;2023-04-29T11:17:34;101780.56;;;10.82;100.00
60817;BME280;51921;51.518;-3.188;2023-04-29T11:19:53;101788.26;;;7.50;100.00
60817;BME280;51921;51.518;-3.188;2023-04-29T11:22:25;101783.82;;;7.22;100.00
60817;BME280;51921;51.518;-3.188;2023-04-29T11:24:49;101773.24;;;10.21;100.00
60817;BME280;51921;51.518;-3.188;2023-04-29T11:27:09;101773.66;;;10.51;100.00
60817;BME280;51921;51.518;-3.188;2023-04-29T11:29:35;101775.59;;;9.87;100.00
60817;BME280;51921;51.518;-3.188;2023-04-29T11:32:01;101773.99;;;9.91;100.00
60817;BME280;51921;51.518;-3.188;2023-04-29T11:34:25;101773.10;;;11.08;100.00
60817;BME280;51921;51.518;-3.188;2023-04-29T11:36:52;101772.94;;;12.96;100.00
60817;BME280;51921;51.518;-3.188;2023-04-29T11:39:17;101774.71;;;8.61;100.00
60817;BME280;51921;51.518;-3.188;2023-04-29T11:41:42;101775.58;;;10.36;100.00
60817;BME280;51921;51.518;-3.188;2023-04-29T11:44:08;101776.71;;;11.84;100.00
60817;BME280;51921;51.518;-3.188;2023-04-29T11:46:33;101776.81;;;12.12;100.00
60817;BME280;51921;51.518;-3.188;2023-04-29T11:48:58;101772.89;;;13.24;100.00
60817;BME280;51921;51.518;-3.188;2023-04-29T11:51:24;101776.63;;;12.31;100.00
60817;BME280;51921;51.518;-3.188;2023-04-29T11:53:50;101775.29;;;10.20;100.00
60817;BME280;51921;51.518;-3.188;2023-04-29T11:56:15;101775.30;;;11.93;100.00
60817;BME280;51921;51.518;-3.188;2023-04-29T11:58:41;101778.76;;;11.65;100.00
60817;BME280;51921;51.518;-3.188;2023-04-29T12:01:05;101777.97;;;12.02;100.00
60817;BME280;51921;51.518;-3.188;2023-04-29T12:03:31;101778.44;;;12.73;100.00
60817;BME280;51921;51.518;-3.188;2023-04-29T12:05:56;101773.09;;;13.88;100.00
60817;BME280;51921;51.518;-3.188;2023-04-29T12:08:22;101774.78;;;10.42;100.00
60817;BME280;51921;51.518;-3.188;2023-04-29T12:10:47;101774.82;;;11.81;100.00
60817;BME280;51921;51.518;-3.188;2023-04-29T12:13:12;101773.58;;;11.65;100.00
60817;BME280;51921;51.518;-3.188;2023-04-29T12:15:37;101776.33;;;11.83;100.00
60817;BME280;51921;51.518;-3.188;2023-04-29T12:18:03;101771.15;;;13.11;100.00
60817;BME280;51921;51.518;-3.188;2023-04-29T12:20:28;101773.58;;;10.88;100.00
60817;BME280;51921;51.518;-3.188;2023-04-29T12:22:53;101776.31;;;12.38;100.00
60817;BME280;51921;51.518;-3.188;2023-04-29T12:25:19;101778.05;;;13.73;100.00
60817;BME280;51921;51.518;-3.188;2023-04-29T12:27:44;101776.93;;;12.63;100.00
60817;BME280;51921;51.518;-3.188;2023-04-29T12:30:10;101777.52;;;10.76;100.00
60817;BME280;51921;51.518;-3.188;2023-04-29T12:32:35;101777.93;;;11.12;100.00
60817;BME280;51921;51.518;-3.188;2023-04-29T12:35:00;101783.88;;;12.36;100.00